Terminal Aerodrome Forecast
Issued by NWS

Home | Current Version | Previous Version | Text Only | Print | Product List | Glossary On
Versions: 1 2 3 4 5 6 7 8 9 10 11 12 13 14 15 16 17 18 19 20
000
FTUS41 KPBZ 101100
TAFMGW
TAF
KMGW 101134Z 1012/1112 VRB03KT P6SM SKC
     FM101700 02004KT P6SM BKN050
     FM110800 00000KT 1 1/2SM BR SKC
     FM111100 00000KT 1/2SM FG SKC=

USA.gov is the U.S. government's official web portal to all federal, state and local government web resources and services.